sensor_id;sensor_type;location;lat;lon;timestamp;temperature;humidity
5846;DHT22;2949;50.778;7.094;2023-02-24T00:01:17;6.80;99.90
5846;DHT22;2949;50.778;7.094;2023-02-24T00:04:11;6.80;99.90
5846;DHT22;2949;50.778;7.094;2023-02-24T00:06:40;6.80;99.90
5846;DHT22;2949;50.778;7.094;2023-02-24T00:09:13;6.90;99.90
5846;DHT22;2949;50.778;7.094;2023-02-24T00:11:42;6.90;99.90
5846;DHT22;2949;50.778;7.094;2023-02-24T00:14:12;6.90;99.90
5846;DHT22;2949;50.778;7.094;2023-02-24T00:16:41;6.90;99.90
5846;DHT22;2949;50.778;7.094;2023-02-24T00:19:07;6.90;99.90
5846;DHT22;2949;50.778;7.094;2023-02-24T00:21:34;6.90;99.90
5846;DHT22;2949;50.778;7.094;2023-02-24T00:23:59;6.90;99.90
5846;DHT22;2949;50.778;7.094;2023-02-24T00:26:27;6.90;99.90
5846;DHT22;2949;50.778;7.094;2023-02-24T00:28:57;6.90;99.90
5846;DHT22;2949;50.778;7.094;2023-02-24T00:31:26;6.90;99.90
5846;DHT22;2949;50.778;7.094;2023-02-24T00:33:54;6.90;99.90
5846;DHT22;2949;50.778;7.094;2023-02-24T00:36:21;6.90;99.90
5846;DHT22;2949;50.778;7.094;2023-02-24T00:38:57;6.90;99.90
5846;DHT22;2949;50.778;7.094;2023-02-24T00:41:26;6.90;99.90
5846;DHT22;2949;50.778;7.094;2023-02-24T00:43:55;6.90;99.90
5846;DHT22;2949;50.778;7.094;2023-02-24T00:46:23;6.90;99.90
5846;DHT22;2949;50.778;7.094;2023-02-24T00:48:51;6.90;99.90
5846;DHT22;2949;50.778;7.094;2023-02-24T00:51:21;6.90;99.90
5846;DHT22;2949;50.778;7.094;2023-02-24T00:53:55;7.00;99.90
5846;DHT22;2949;50.778;7.094;2023-02-24T00:56:22;7.00;99.90
5846;DHT22;2949;50.778;7.094;2023-02-24T00:58:48;7.00;99.90
5846;DHT22;2949;50.778;7.094;2023-02-24T01:01:17;7.00;99.90
5846;DHT22;2949;50.778;7.094;2023-02-24T01:03:43;7.00;99.90
5846;DHT22;2949;50.778;7.094;2023-02-24T01:06:10;7.00;99.90
5846;DHT22;2949;50.778;7.094;2023-02-24T01:08:37;7.00;99.90
5846;DHT22;2949;50.778;7.094;2023-02-24T01:11:05;7.00;99.90
5846;DHT22;2949;50.778;7.094;2023-02-24T01:13:49;7.00;99.90
5846;DHT22;2949;50.778;7.094;2023-02-24T01:16:14;7.00;99.90
5846;DHT22;2949;50.778;7.094;2023-02-24T01:18:44;7.00;99.90
5846;DHT22;2949;50.778;7.094;2023-02-24T01:21:10;7.00;99.90
5846;DHT22;2949;50.778;7.094;2023-02-24T01:23:37;7.00;99.90
5846;DHT22;2949;50.778;7.094;2023-02-24T01:26:02;6.90;99.90
5846;DHT22;2949;50.778;7.094;2023-02-24T01:28:28;6.90;99.90
5846;DHT22;2949;50.778;7.094;2023-02-24T01:30:54;6.80;99.90
5846;DHT22;2949;50.778;7.094;2023-02-24T01:33:26;6.80;99.90
5846;DHT22;2949;50.778;7.094;2023-02-24T01:35:51;6.80;99.90
5846;DHT22;2949;50.778;7.094;2023-02-24T01:38:19;6.80;99.90
5846;DHT22;2949;50.778;7.094;2023-02-24T01:40:57;6.70;99.90
5846;DHT22;2949;50.778;7.094;2023-02-24T01:43:23;6.70;99.90
5846;DHT22;2949;50.778;7.094;2023-02-24T01:45:49;6.70;99.90
5846;DHT22;2949;50.778;7.094;2023-02-24T01:48:16;6.60;99.90
5846;DHT22;2949;50.778;7.094;2023-02-24T01:50:42;6.60;99.90
5846;DHT22;2949;50.778;7.094;2023-02-24T01:53:10;6.60;99.90
5846;DHT22;2949;50.778;7.094;2023-02-24T01:55:43;6.50;99.90
5846;DHT22;2949;50.778;7.094;2023-02-24T01:58:18;6.50;99.90
5846;DHT22;2949;50.778;7.094;2023-02-24T02:00:44;6.50;99.90
5846;DHT22;2949;50.778;7.094;2023-02-24T02:03:19;6.50;99.90
5846;DHT22;2949;50.778;7.094;2023-02-24T02:05:45;6.50;99.90
5846;DHT22;2949;50.778;7.094;2023-02-24T02:08:16;6.40;99.90
5846;DHT22;2949;50.778;7.094;2023-02-24T02:10:42;6.40;99.90
5846;DHT22;2949;50.778;7.094;2023-02-24T02:13:13;6.40;99.90
5846;DHT22;2949;50.778;7.094;2023-02-24T02:15:53;6.30;99.90
5846;DHT22;2949;50.778;7.094;2023-02-24T02:18:40;6.30;99.90
5846;DHT22;2949;50.778;7.094;2023-02-24T02:21:26;6.30;99.90
5846;DHT22;2949;50.778;7.094;2023-02-24T02:27:09;6.30;99.90
5846;DHT22;2949;50.778;7.094;2023-02-24T02:40:09;6.20;99.90
5846;DHT22;2949;50.778;7.094;2023-02-24T02:45:32;6.20;99.90
5846;DHT22;2949;50.778;7.094;2023-02-24T02:48:05;6.10;99.90
5846;DHT22;2949;50.778;7.094;2023-02-24T02:50:36;6.10;99.90
5846;DHT22;2949;50.778;7.094;2023-02-24T02:53:17;6.10;99.90
5846;DHT22;2949;50.778;7.094;2023-02-24T02:56:01;6.10;99.90
5846;DHT22;2949;50.778;7.094;2023-02-24T02:58:33;6.10;99.90
5846;DHT22;2949;50.778;7.094;2023-02-24T03:01:01;6.00;99.90
5846;DHT22;2949;50.778;7.094;2023-02-24T03:03:32;6.00;99.90
5846;DHT22;2949;50.778;7.094;2023-02-24T03:06:03;6.00;99.90
5846;DHT22;2949;50.778;7.094;2023-02-24T03:08:32;6.00;99.90
5846;DHT22;2949;50.778;7.094;2023-02-24T03:11:02;6.00;99.90
5846;DHT22;2949;50.778;7.094;2023-02-24T03:13:32;6.00;99.90
5846;DHT22;2949;50.778;7.094;2023-02-24T03:16:00;6.00;99.90
5846;DHT22;2949;50.778;7.094;2023-02-24T03:18:33;6.00;99.90
5846;DHT22;2949;50.778;7.094;2023-02-24T03:21:06;6.00;99.90
5846;DHT22;2949;50.778;7.094;2023-02-24T03:23:46;6.00;99.90
5846;DHT22;2949;50.778;7.094;2023-02-24T03:26:32;5.90;99.90
5846;DHT22;2949;50.778;7.094;2023-02-24T03:29:18;5.90;99.90
5846;DHT22;2949;50.778;7.094;2023-02-24T03:32:01;5.90;99.90
5846;DHT22;2949;50.778;7.094;2023-02-24T03:34:32;5.90;99.90
5846;DHT22;2949;50.778;7.094;2023-02-24T03:37:02;5.90;99.90
5846;DHT22;2949;50.778;7.094;2023-02-24T03:39:28;5.90;99.90
5846;DHT22;2949;50.778;7.094;2023-02-24T03:44:20;5.80;99.90
5846;DHT22;2949;50.778;7.094;2023-02-24T03:46:46;5.80;99.90
5846;DHT22;2949;50.778;7.094;2023-02-24T03:49:13;5.80;99.90
5846;DHT22;2949;50.778;7.094;2023-02-24T03:51:44;5.80;99.90
5846;DHT22;2949;50.778;7.094;2023-02-24T03:54:27;5.80;99.90
5846;DHT22;2949;50.778;7.094;2023-02-24T04:00:22;5.70;99.90
5846;DHT22;2949;50.778;7.094;2023-02-24T04:03:01;5.70;99.90
5846;DHT22;2949;50.778;7.094;2023-02-24T04:05:30;5.70;99.90
5846;DHT22;2949;50.778;7.094;2023-02-24T04:08:00;5.70;99.90
5846;DHT22;2949;50.778;7.094;2023-02-24T04:10:49;5.70;99.90
5846;DHT22;2949;50.778;7.094;2023-02-24T04:13:35;5.60;99.90
5846;DHT22;2949;50.778;7.094;2023-02-24T04:16:22;5.70;99.90
5846;DHT22;2949;50.778;7.094;2023-02-24T04:18:55;5.60;99.90
5846;DHT22;2949;50.778;7.094;2023-02-24T04:21:25;5.60;99.90
5846;DHT22;2949;50.778;7.094;2023-02-24T04:23:52;5.60;99.90
5846;DHT22;2949;50.778;7.094;2023-02-24T04:26:18;5.60;99.90
5846;DHT22;2949;50.778;7.094;2023-02-24T04:28:45;5.60;99.90
5846;DHT22;2949;50.778;7.094;2023-02-24T04:31:13;5.60;99.90
5846;DHT22;2949;50.778;7.094;2023-02-24T04:33:42;5.60;99.90
5846;DHT22;2949;50.778;7.094;2023-02-24T04:36:08;5.60;99.90
5846;DHT22;2949;50.778;7.094;2023-02-24T04:38:37;5.60;99.90
5846;DHT22;2949;50.778;7.094;2023-02-24T04:41:03;5.50;99.90
5846;DHT22;2949;50.778;7.094;2023-02-24T04:43:29;5.60;99.90
5846;DHT22;2949;50.778;7.094;2023-02-24T04:45:55;5.50;99.90
5846;DHT22;2949;50.778;7.094;2023-02-24T04:48:21;5.50;99.90
5846;DHT22;2949;50.778;7.094;2023-02-24T04:50:46;5.50;99.90
5846;DHT22;2949;50.778;7.094;2023-02-24T04:53:19;5.50;99.90
5846;DHT22;2949;50.778;7.094;2023-02-24T04:55:51;5.50;99.90
5846;DHT22;2949;50.778;7.094;2023-02-24T04:58:19;5.50;99.90
5846;DHT22;2949;50.778;7.094;2023-02-24T05:00:50;5.50;99.90
5846;DHT22;2949;50.778;7.094;2023-02-24T05:03:23;5.50;99.90
5846;DHT22;2949;50.778;7.094;2023-02-24T05:05:55;5.50;99.90
5846;DHT22;2949;50.778;7.094;2023-02-24T05:08:22;5.50;99.90
5846;DHT22;2949;50.778;7.094;2023-02-24T05:10:48;5.40;99.90
5846;DHT22;2949;50.778;7.094;2023-02-24T05:13:20;5.40;99.90
5846;DHT22;2949;50.778;7.094;2023-02-24T05:15:46;5.40;99.90
5846;DHT22;2949;50.778;7.094;2023-02-24T05:18:13;5.40;99.90
5846;DHT22;2949;50.778;7.094;2023-02-24T05:20:44;5.40;99.90
5846;DHT22;2949;50.778;7.094;2023-02-24T05:23:32;5.40;99.90
5846;DHT22;2949;50.778;7.094;2023-02-24T05:26:02;5.40;99.90
5846;DHT22;2949;50.778;7.094;2023-02-24T05:28:40;5.30;99.90
5846;DHT22;2949;50.778;7.094;2023-02-24T05:31:14;5.30;99.90
5846;DHT22;2949;50.778;7.094;2023-02-24T05:33:42;5.30;99.90
5846;DHT22;2949;50.778;7.094;2023-02-24T05:36:11;5.20;99.90
5846;DHT22;2949;50.778;7.094;2023-02-24T05:38:39;5.20;99.90
5846;DHT22;2949;50.778;7.094;2023-02-24T05:41:15;5.20;99.90
5846;DHT22;2949;50.778;7.094;2023-02-24T05:43:54;5.40;99.90
5846;DHT22;2949;50.778;7.094;2023-02-24T05:46:24;5.20;99.90
5846;DHT22;2949;50.778;7.094;2023-02-24T05:48:58;5.20;99.90
5846;DHT22;2949;50.778;7.094;2023-02-24T05:51:25;5.10;99.90
5846;DHT22;2949;50.778;7.094;2023-02-24T05:53:51;5.10;99.90
5846;DHT22;2949;50.778;7.094;2023-02-24T05:56:21;5.10;99.90
5846;DHT22;2949;50.778;7.094;2023-02-24T05:58:47;5.10;99.90
5846;DHT22;2949;50.778;7.094;2023-02-24T06:01:14;5.10;99.90
5846;DHT22;2949;50.778;7.094;2023-02-24T06:03:44;5.10;99.90
5846;DHT22;2949;50.778;7.094;2023-02-24T06:06:16;5.10;99.90
5846;DHT22;2949;50.778;7.094;2023-02-24T06:08:43;5.10;99.90
5846;DHT22;2949;50.778;7.094;2023-02-24T06:11:16;5.10;99.90
5846;DHT22;2949;50.778;7.094;2023-02-24T06:13:45;5.10;99.90
5846;DHT22;2949;50.778;7.094;2023-02-24T06:16:15;5.10;99.90
5846;DHT22;2949;50.778;7.094;2023-02-24T06:18:42;5.10;99.90
5846;DHT22;2949;50.778;7.094;2023-02-24T06:21:08;5.10;99.90
5846;DHT22;2949;50.778;7.094;2023-02-24T06:23:39;5.10;99.90
5846;DHT22;2949;50.778;7.094;2023-02-24T06:26:06;5.10;99.90
5846;DHT22;2949;50.778;7.094;2023-02-24T06:28:38;5.10;99.90
5846;DHT22;2949;50.778;7.094;2023-02-24T06:31:04;5.10;99.90
5846;DHT22;2949;50.778;7.094;2023-02-24T06:33:34;5.00;99.90
5846;DHT22;2949;50.778;7.094;2023-02-24T06:36:01;5.10;99.90
5846;DHT22;2949;50.778;7.094;2023-02-24T06:38:29;5.00;99.90
5846;DHT22;2949;50.778;7.094;2023-02-24T06:40:59;5.00;99.90
5846;DHT22;2949;50.778;7.094;2023-02-24T06:43:31;5.00;99.90
5846;DHT22;2949;50.778;7.094;2023-02-24T06:45:57;5.00;99.90
5846;DHT22;2949;50.778;7.094;2023-02-24T06:48:23;5.00;99.90
5846;DHT22;2949;50.778;7.094;2023-02-24T06:50:49;5.00;99.90
5846;DHT22;2949;50.778;7.094;2023-02-24T06:53:16;5.10;99.90
5846;DHT22;2949;50.778;7.094;2023-02-24T06:55:44;5.10;99.90
5846;DHT22;2949;50.778;7.094;2023-02-24T06:58:15;5.20;99.90
5846;DHT22;2949;50.778;7.094;2023-02-24T07:00:41;5.30;99.90
5846;DHT22;2949;50.778;7.094;2023-02-24T07:03:15;5.40;99.90
5846;DHT22;2949;50.778;7.094;2023-02-24T07:05:49;5.40;99.90
5846;DHT22;2949;50.778;7.094;2023-02-24T07:08:20;5.50;99.90
5846;DHT22;2949;50.778;7.094;2023-02-24T07:10:54;5.50;99.90
5846;DHT22;2949;50.778;7.094;2023-02-24T07:13:20;5.50;99.90
5846;DHT22;2949;50.778;7.094;2023-02-24T07:15:46;5.60;99.90
5846;DHT22;2949;50.778;7.094;2023-02-24T07:18:18;5.60;99.90
5846;DHT22;2949;50.778;7.094;2023-02-24T07:20:44;5.70;99.90
5846;DHT22;2949;50.778;7.094;2023-02-24T07:23:15;5.80;99.90
5846;DHT22;2949;50.778;7.094;2023-02-24T07:25:42;5.90;99.90
5846;DHT22;2949;50.778;7.094;2023-02-24T07:28:11;6.10;99.90
5846;DHT22;2949;50.778;7.094;2023-02-24T07:30:38;6.30;99.90
5846;DHT22;2949;50.778;7.094;2023-02-24T07:33:04;6.50;99.90
5846;DHT22;2949;50.778;7.094;2023-02-24T07:35:30;6.70;99.90
5846;DHT22;2949;50.778;7.094;2023-02-24T07:37:55;6.70;99.90
5846;DHT22;2949;50.778;7.094;2023-02-24T07:40:27;6.60;99.90
5846;DHT22;2949;50.778;7.094;2023-02-24T07:42:53;6.60;99.90
5846;DHT22;2949;50.778;7.094;2023-02-24T07:45:19;6.50;99.90
5846;DHT22;2949;50.778;7.094;2023-02-24T07:47:44;6.40;99.90
5846;DHT22;2949;50.778;7.094;2023-02-24T07:50:11;6.40;99.90
5846;DHT22;2949;50.778;7.094;2023-02-24T07:52:41;6.40;99.90
5846;DHT22;2949;50.778;7.094;2023-02-24T07:55:07;6.50;99.90
5846;DHT22;2949;50.778;7.094;2023-02-24T07:57:36;6.40;99.90
5846;DHT22;2949;50.778;7.094;2023-02-24T08:00:05;6.30;99.90
5846;DHT22;2949;50.778;7.094;2023-02-24T08:02:48;6.30;99.90
5846;DHT22;2949;50.778;7.094;2023-02-24T08:05:17;6.30;99.90
5846;DHT22;2949;50.778;7.094;2023-02-24T08:07:44;6.30;99.90
5846;DHT22;2949;50.778;7.094;2023-02-24T08:10:18;6.20;99.90
5846;DHT22;2949;50.778;7.094;2023-02-24T08:12:55;6.10;99.90
5846;DHT22;2949;50.778;7.094;2023-02-24T08:15:23;6.10;99.90
5846;DHT22;2949;50.778;7.094;2023-02-24T08:17:56;6.20;99.90
5846;DHT22;2949;50.778;7.094;2023-02-24T08:20:26;6.30;99.90
5846;DHT22;2949;50.778;7.094;2023-02-24T08:22:54;6.40;99.90
5846;DHT22;2949;50.778;7.094;2023-02-24T08:25:28;6.60;99.90
5846;DHT22;2949;50.778;7.094;2023-02-24T08:28:00;6.60;99.90
5846;DHT22;2949;50.778;7.094;2023-02-24T08:30:30;6.60;99.90
5846;DHT22;2949;50.778;7.094;2023-02-24T08:33:02;6.60;99.90
5846;DHT22;2949;50.778;7.094;2023-02-24T08:35:31;6.60;99.90
5846;DHT22;2949;50.778;7.094;2023-02-24T08:38:07;6.80;99.90
5846;DHT22;2949;50.778;7.094;2023-02-24T08:40:37;6.80;99.90
5846;DHT22;2949;50.778;7.094;2023-02-24T08:43:07;6.80;99.90
5846;DHT22;2949;50.778;7.094;2023-02-24T08:45:55;6.80;99.90
5846;DHT22;2949;50.778;7.094;2023-02-24T08:48:32;6.80;99.90
5846;DHT22;2949;50.778;7.094;2023-02-24T08:53:39;6.80;99.90
5846;DHT22;2949;50.778;7.094;2023-02-24T08:56:07;6.90;99.90
5846;DHT22;2949;50.778;7.094;2023-02-24T08:58:38;6.90;99.90
5846;DHT22;2949;50.778;7.094;2023-02-24T09:01:08;6.90;99.90
5846;DHT22;2949;50.778;7.094;2023-02-24T09:03:43;6.90;99.90
5846;DHT22;2949;50.778;7.094;2023-02-24T09:06:11;6.90;99.90
5846;DHT22;2949;50.778;7.094;2023-02-24T09:08:38;6.90;99.90
5846;DHT22;2949;50.778;7.094;2023-02-24T09:11:10;7.00;99.90
5846;DHT22;2949;50.778;7.094;2023-02-24T09:13:40;6.90;99.90
5846;DHT22;2949;50.778;7.094;2023-02-24T09:16:23;6.80;99.90
5846;DHT22;2949;50.778;7.094;2023-02-24T09:18:49;6.70;99.90
5846;DHT22;2949;50.778;7.094;2023-02-24T09:21:37;6.70;99.90
5846;DHT22;2949;50.778;7.094;2023-02-24T09:24:15;6.80;99.90
5846;DHT22;2949;50.778;7.094;2023-02-24T09:26:54;7.00;99.90
5846;DHT22;2949;50.778;7.094;2023-02-24T09:29:25;7.00;99.90
5846;DHT22;2949;50.778;7.094;2023-02-24T09:32:01;7.00;99.90
5846;DHT22;2949;50.778;7.094;2023-02-24T09:34:33;7.00;99.90
5846;DHT22;2949;50.778;7.094;2023-02-24T09:36:59;7.00;99.90
5846;DHT22;2949;50.778;7.094;2023-02-24T09:41:57;7.10;99.90
5846;DHT22;2949;50.778;7.094;2023-02-24T09:44:54;7.20;99.90
5846;DHT22;2949;50.778;7.094;2023-02-24T09:47:41;7.20;99.90
5846;DHT22;2949;50.778;7.094;2023-02-24T09:52:45;7.00;99.90
5846;DHT22;2949;50.778;7.094;2023-02-24T09:55:37;7.00;99.90
5846;DHT22;2949;50.778;7.094;2023-02-24T10:06:48;6.90;99.90
5846;DHT22;2949;50.778;7.094;2023-02-24T10:09:25;6.90;99.90
5846;DHT22;2949;50.778;7.094;2023-02-24T10:11:57;7.00;99.90
5846;DHT22;2949;50.778;7.094;2023-02-24T10:17:24;6.90;99.90
5846;DHT22;2949;50.778;7.094;2023-02-24T10:20:00;6.90;99.90
5846;DHT22;2949;50.778;7.094;2023-02-24T10:22:43;6.90;99.90
5846;DHT22;2949;50.778;7.094;2023-02-24T10:25:50;7.30;99.90
5846;DHT22;2949;50.778;7.094;2023-02-24T10:31:17;7.70;99.90
5846;DHT22;2949;50.778;7.094;2023-02-24T10:34:03;7.90;99.90
5846;DHT22;2949;50.778;7.094;2023-02-24T10:36:31;7.90;99.90
5846;DHT22;2949;50.778;7.094;2023-02-24T10:39:19;8.00;99.90
5846;DHT22;2949;50.778;7.094;2023-02-24T10:41:47;8.20;99.90
5846;DHT22;2949;50.778;7.094;2023-02-24T10:44:21;8.20;99.90
5846;DHT22;2949;50.778;7.094;2023-02-24T10:47:11;8.10;99.90
5846;DHT22;2949;50.778;7.094;2023-02-24T10:49:48;8.00;99.90
5846;DHT22;2949;50.778;7.094;2023-02-24T10:52:38;7.90;99.90
5846;DHT22;2949;50.778;7.094;2023-02-24T10:55:31;7.80;99.90
5846;DHT22;2949;50.778;7.094;2023-02-24T10:58:34;7.80;99.90
5846;DHT22;2949;50.778;7.094;2023-02-24T11:01:10;7.80;99.90
5846;DHT22;2949;50.778;7.094;2023-02-24T11:03:39;7.80;99.90
5846;DHT22;2949;50.778;7.094;2023-02-24T11:06:18;7.80;99.90
5846;DHT22;2949;50.778;7.094;2023-02-24T11:08:58;7.70;99.90
5846;DHT22;2949;50.778;7.094;2023-02-24T11:11:45;7.60;99.90
5846;DHT22;2949;50.778;7.094;2023-02-24T11:14:30;7.60;99.90
5846;DHT22;2949;50.778;7.094;2023-02-24T11:17:19;7.60;99.90
5846;DHT22;2949;50.778;7.094;2023-02-24T11:19:57;7.60;99.90
5846;DHT22;2949;50.778;7.094;2023-02-24T11:22:38;7.60;99.90
5846;DHT22;2949;50.778;7.094;2023-02-24T11:25:12;7.70;99.90
5846;DHT22;2949;50.778;7.094;2023-02-24T11:27:40;7.70;99.90
5846;DHT22;2949;50.778;7.094;2023-02-24T11:31:18;7.70;99.90
5846;DHT22;2949;50.778;7.094;2023-02-24T11:33:26;7.60;99.90
5846;DHT22;2949;50.778;7.094;2023-02-24T11:39:22;7.40;99.90
5846;DHT22;2949;50.778;7.094;2023-02-24T11:41:57;7.50;99.90
5846;DHT22;2949;50.778;7.094;2023-02-24T11:44:35;7.40;99.90
5846;DHT22;2949;50.778;7.094;2023-02-24T11:47:11;7.30;99.90
5846;DHT22;2949;50.778;7.094;2023-02-24T11:49:43;7.30;99.90
5846;DHT22;2949;50.778;7.094;2023-02-24T11:52:15;7.10;99.90
5846;DHT22;2949;50.778;7.094;2023-02-24T11:54:47;7.10;99.90
5846;DHT22;2949;50.778;7.094;2023-02-24T11:57:19;7.10;99.90
5846;DHT22;2949;50.778;7.094;2023-02-24T11:59:50;7.00;99.90
5846;DHT22;2949;50.778;7.094;2023-02-24T12:02:38;7.00;99.90
5846;DHT22;2949;50.778;7.094;2023-02-24T12:05:14;7.00;99.90
5846;DHT22;2949;50.778;7.094;2023-02-24T12:07:56;7.00;99.90
5846;DHT22;2949;50.778;7.094;2023-02-24T12:10:28;7.00;99.90
5846;DHT22;2949;50.778;7.094;2023-02-24T12:15:34;6.90;99.90
5846;DHT22;2949;50.778;7.094;2023-02-24T12:18:29;6.80;99.90
5846;DHT22;2949;50.778;7.094;2023-02-24T12:21:03;6.80;99.90
5846;DHT22;2949;50.778;7.094;2023-02-24T12:23:35;6.80;99.90
5846;DHT22;2949;50.778;7.094;2023-02-24T12:26:13;6.60;99.90
5846;DHT22;2949;50.778;7.094;2023-02-24T12:34:18;6.40;99.90
5846;DHT22;2949;50.778;7.094;2023-02-24T12:39:51;6.20;99.90
5846;DHT22;2949;50.778;7.094;2023-02-24T12:45:59;6.10;99.90
5846;DHT22;2949;50.778;7.094;2023-02-24T12:48:54;6.10;99.90
5846;DHT22;2949;50.778;7.094;2023-02-24T12:51:38;6.10;99.90
5846;DHT22;2949;50.778;7.094;2023-02-24T12:57:12;6.00;99.90
5846;DHT22;2949;50.778;7.094;2023-02-24T12:59:41;5.80;99.90
5846;DHT22;2949;50.778;7.094;2023-02-24T13:05:20;5.70;99.90
5846;DHT22;2949;50.778;7.094;2023-02-24T13:10:50;5.60;99.90
5846;DHT22;2949;50.778;7.094;2023-02-24T13:15:52;5.70;99.90
5846;DHT22;2949;50.778;7.094;2023-02-24T13:18:32;5.80;99.90
5846;DHT22;2949;50.778;7.094;2023-02-24T13:21:21;5.80;99.90
5846;DHT22;2949;50.778;7.094;2023-02-24T13:23:58;5.90;99.90
5846;DHT22;2949;50.778;7.094;2023-02-24T13:26:26;5.90;99.90
5846;DHT22;2949;50.778;7.094;2023-02-24T13:29:10;5.90;99.90
5846;DHT22;2949;50.778;7.094;2023-02-24T13:31:45;5.90;99.90
5846;DHT22;2949;50.778;7.094;2023-02-24T13:36:54;5.80;99.90
5846;DHT22;2949;50.778;7.094;2023-02-24T13:39:23;5.80;99.90
5846;DHT22;2949;50.778;7.094;2023-02-24T13:42:01;5.70;99.90
5846;DHT22;2949;50.778;7.094;2023-02-24T13:44:28;5.70;99.90
5846;DHT22;2949;50.778;7.094;2023-02-24T13:47:30;5.70;99.90
5846;DHT22;2949;50.778;7.094;2023-02-24T13:50:18;5.70;99.90
5846;DHT22;2949;50.778;7.094;2023-02-24T14:01:18;5.60;99.90
5846;DHT22;2949;50.778;7.094;2023-02-24T14:04:01;5.60;99.90
5846;DHT22;2949;50.778;7.094;2023-02-24T14:06:27;5.60;99.90
5846;DHT22;2949;50.778;7.094;2023-02-24T14:08:55;5.60;99.90
5846;DHT22;2949;50.778;7.094;2023-02-24T14:11:24;5.70;99.90
5846;DHT22;2949;50.778;7.094;2023-02-24T14:13:53;5.70;99.90
5846;DHT22;2949;50.778;7.094;2023-02-24T14:16:26;5.60;99.90
5846;DHT22;2949;50.778;7.094;2023-02-24T14:18:58;5.60;99.90
5846;DHT22;2949;50.778;7.094;2023-02-24T14:21:28;5.60;99.90
5846;DHT22;2949;50.778;7.094;2023-02-24T14:24:10;5.60;99.90
5846;DHT22;2949;50.778;7.094;2023-02-24T14:26:57;5.50;99.90
5846;DHT22;2949;50.778;7.094;2023-02-24T14:29:25;5.50;99.90
5846;DHT22;2949;50.778;7.094;2023-02-24T14:31:55;5.50;99.90
5846;DHT22;2949;50.778;7.094;2023-02-24T14:34:23;5.60;99.90
5846;DHT22;2949;50.778;7.094;2023-02-24T14:36:55;5.60;99.90
5846;DHT22;2949;50.778;7.094;2023-02-24T14:39:26;5.50;99.90
5846;DHT22;2949;50.778;7.094;2023-02-24T14:42:10;5.50;99.90
5846;DHT22;2949;50.778;7.094;2023-02-24T14:44:45;5.50;99.90
5846;DHT22;2949;50.778;7.094;2023-02-24T14:47:13;5.50;99.90
5846;DHT22;2949;50.778;7.094;2023-02-24T14:49:39;5.50;99.90
5846;DHT22;2949;50.778;7.094;2023-02-24T14:52:13;5.40;99.90
5846;DHT22;2949;50.778;7.094;2023-02-24T14:54:47;5.40;99.90
5846;DHT22;2949;50.778;7.094;2023-02-24T14:57:22;5.40;99.90
5846;DHT22;2949;50.778;7.094;2023-02-24T14:59:52;5.40;99.90
5846;DHT22;2949;50.778;7.094;2023-02-24T15:02:23;5.40;99.90
5846;DHT22;2949;50.778;7.094;2023-02-24T15:04:53;5.50;99.90
5846;DHT22;2949;50.778;7.094;2023-02-24T15:07:22;5.50;99.90
5846;DHT22;2949;50.778;7.094;2023-02-24T15:09:50;5.50;99.90
5846;DHT22;2949;50.778;7.094;2023-02-24T15:14:52;5.50;99.90
5846;DHT22;2949;50.778;7.094;2023-02-24T15:17:20;5.40;99.90
5846;DHT22;2949;50.778;7.094;2023-02-24T15:19:46;5.40;99.90
5846;DHT22;2949;50.778;7.094;2023-02-24T15:22:29;5.40;99.90
5846;DHT22;2949;50.778;7.094;2023-02-24T15:25:28;5.30;99.90
5846;DHT22;2949;50.778;7.094;2023-02-24T15:27:56;5.30;99.90
5846;DHT22;2949;50.778;7.094;2023-02-24T15:30:29;5.30;99.90
5846;DHT22;2949;50.778;7.094;2023-02-24T15:33:10;5.30;99.90
5846;DHT22;2949;50.778;7.094;2023-02-24T15:35:46;5.30;99.90
5846;DHT22;2949;50.778;7.094;2023-02-24T15:38:33;5.20;99.90
5846;DHT22;2949;50.778;7.094;2023-02-24T15:41:02;5.20;99.90
5846;DHT22;2949;50.778;7.094;2023-02-24T15:43:44;5.20;99.90
5846;DHT22;2949;50.778;7.094;2023-02-24T15:48:44;5.20;99.90
5846;DHT22;2949;50.778;7.094;2023-02-24T15:51:44;5.20;99.90
5846;DHT22;2949;50.778;7.094;2023-02-24T15:54:17;5.10;99.90
5846;DHT22;2949;50.778;7.094;2023-02-24T15:56:44;5.10;99.90
5846;DHT22;2949;50.778;7.094;2023-02-24T15:59:18;5.10;99.90
5846;DHT22;2949;50.778;7.094;2023-02-24T16:01:45;5.10;99.90
5846;DHT22;2949;50.778;7.094;2023-02-24T16:04:11;5.10;99.90
5846;DHT22;2949;50.778;7.094;2023-02-24T16:06:38;5.10;99.90
5846;DHT22;2949;50.778;7.094;2023-02-24T16:09:14;5.10;99.90
5846;DHT22;2949;50.778;7.094;2023-02-24T16:11:44;5.10;99.90
5846;DHT22;2949;50.778;7.094;2023-02-24T16:14:16;5.10;99.90
5846;DHT22;2949;50.778;7.094;2023-02-24T16:16:42;5.10;99.90
5846;DHT22;2949;50.778;7.094;2023-02-24T16:19:13;5.10;99.90
5846;DHT22;2949;50.778;7.094;2023-02-24T16:21:39;5.20;99.90
5846;DHT22;2949;50.778;7.094;2023-02-24T16:24:05;5.20;99.90
5846;DHT22;2949;50.778;7.094;2023-02-24T16:26:36;5.20;99.90
5846;DHT22;2949;50.778;7.094;2023-02-24T16:29:03;5.20;99.90
5846;DHT22;2949;50.778;7.094;2023-02-24T16:31:36;5.10;99.90
5846;DHT22;2949;50.778;7.094;2023-02-24T16:34:02;5.10;99.90
5846;DHT22;2949;50.778;7.094;2023-02-24T16:36:29;5.10;99.90
5846;DHT22;2949;50.778;7.094;2023-02-24T16:38:54;5.10;99.90
5846;DHT22;2949;50.778;7.094;2023-02-24T16:41:20;5.10;99.90
5846;DHT22;2949;50.778;7.094;2023-02-24T16:43:45;5.10;99.90
5846;DHT22;2949;50.778;7.094;2023-02-24T16:46:14;5.10;99.90
5846;DHT22;2949;50.778;7.094;2023-02-24T16:48:43;5.10;99.90
5846;DHT22;2949;50.778;7.094;2023-02-24T16:51:10;5.10;99.90
5846;DHT22;2949;50.778;7.094;2023-02-24T16:53:36;5.10;99.90
5846;DHT22;2949;50.778;7.094;2023-02-24T16:56:02;5.10;99.90
5846;DHT22;2949;50.778;7.094;2023-02-24T16:58:29;5.10;99.90
5846;DHT22;2949;50.778;7.094;2023-02-24T17:00:57;5.10;99.90
5846;DHT22;2949;50.778;7.094;2023-02-24T17:03:27;5.10;99.90
5846;DHT22;2949;50.778;7.094;2023-02-24T17:05:54;5.10;99.90
5846;DHT22;2949;50.778;7.094;2023-02-24T17:08:20;5.10;99.90
5846;DHT22;2949;50.778;7.094;2023-02-24T17:10:46;5.10;99.90
5846;DHT22;2949;50.778;7.094;2023-02-24T17:13:18;5.10;99.90
5846;DHT22;2949;50.778;7.094;2023-02-24T17:15:44;5.10;99.90
5846;DHT22;2949;50.778;7.094;2023-02-24T17:18:10;5.00;99.90
5846;DHT22;2949;50.778;7.094;2023-02-24T17:20:37;4.90;99.90
5846;DHT22;2949;50.778;7.094;2023-02-24T17:23:03;4.90;99.90
5846;DHT22;2949;50.778;7.094;2023-02-24T17:25:30;5.00;99.90
5846;DHT22;2949;50.778;7.094;2023-02-24T17:27:57;5.00;99.90
5846;DHT22;2949;50.778;7.094;2023-02-24T17:30:26;5.00;99.90
5846;DHT22;2949;50.778;7.094;2023-02-24T17:32:52;5.00;99.90
5846;DHT22;2949;50.778;7.094;2023-02-24T17:35:18;5.10;99.90
5846;DHT22;2949;50.778;7.094;2023-02-24T17:37:43;5.10;99.90
5846;DHT22;2949;50.778;7.094;2023-02-24T17:40:09;5.10;99.90
5846;DHT22;2949;50.778;7.094;2023-02-24T17:42:35;5.20;99.90
5846;DHT22;2949;50.778;7.094;2023-02-24T17:45:01;5.20;99.90
5846;DHT22;2949;50.778;7.094;2023-02-24T17:47:28;5.10;99.90
5846;DHT22;2949;50.778;7.094;2023-02-24T17:49:54;5.10;99.90
5846;DHT22;2949;50.778;7.094;2023-02-24T17:52:19;5.10;99.90
5846;DHT22;2949;50.778;7.094;2023-02-24T17:54:45;5.10;99.90
5846;DHT22;2949;50.778;7.094;2023-02-24T17:57:10;5.10;99.90
5846;DHT22;2949;50.778;7.094;2023-02-24T17:59:36;5.10;99.90
5846;DHT22;2949;50.778;7.094;2023-02-24T18:02:02;5.10;99.90
5846;DHT22;2949;50.778;7.094;2023-02-24T18:04:29;5.10;99.90
5846;DHT22;2949;50.778;7.094;2023-02-24T18:06:55;5.00;99.90
5846;DHT22;2949;50.778;7.094;2023-02-24T18:09:20;5.00;99.90
5846;DHT22;2949;50.778;7.094;2023-02-24T18:11:48;4.90;99.90
5846;DHT22;2949;50.778;7.094;2023-02-24T18:14:13;4.90;99.90
5846;DHT22;2949;50.778;7.094;2023-02-24T18:16:39;4.90;99.90
5846;DHT22;2949;50.778;7.094;2023-02-24T18:19:05;5.00;99.90